Terminal Aerodrome Forecast
Issued by NWS

Home | Current Version | Previous Version | Text Only | Print | Product List | Glossary On
Versions: 1 2 3 4 5 6 7 8 9 10 11 12 13 14 15 16 17 18 19 20 21 22 23 24 25 26 27 28 29 30 31 32 33 34 35 36 37 38 39 40 41
000
FTUS46 KEKA 310921 AAA
TAFCEC
TAF AMD
KCEC 310921Z 3109/0106 30013KT P6SM -RA BKN008 OVC018
     FM311300 VRB05KT 4SM -DZ BR SCT007 OVC025
     FM311500 19006KT 6SM -SHRA BKN025 OVC050=

USA.gov is the U.S. government's official web portal to all federal, state and local government web resources and services.